createdAt,value
2022-08-07T00:07:27.410Z,100.00
2022-08-07T00:17:35.267Z,100.00
2022-08-07T00:27:52.369Z,100.00
2022-08-07T00:37:55.341Z,100.00
2022-08-07T00:48:09.010Z,100.00
2022-08-07T00:58:15.538Z,100.00
2022-08-07T01:08:22.456Z,100.00
2022-08-07T01:18:34.388Z,100.00
2022-08-07T01:28:45.818Z,100.00
2022-08-07T01:38:53.809Z,100.00
2022-08-07T01:52:01.573Z,100.00
2022-08-07T02:46:52.497Z,100.00
2022-08-07T04:04:24.157Z,100.00
2022-08-07T04:14:37.738Z,100.00
2022-08-07T05:46:51.219Z,90.19
2022-08-07T06:42:03.477Z,66.62
2022-08-07T07:45:10.236Z,30.98
2022-08-07T08:22:00.674Z,24.40
2022-08-07T09:01:15.113Z,29.54
2022-08-07T09:16:23.065Z,25.67
2022-08-07T09:34:53.791Z,28.43
2022-08-07T10:06:12.498Z,26.80
2022-08-07T10:16:30.065Z,27.38
2022-08-07T10:38:42.067Z,29.83
2022-08-07T11:23:17.503Z,25.03
2022-08-07T11:42:52.591Z,23.44
2022-08-07T12:14:12.705Z,28.39
2022-08-07T12:26:03.390Z,28.37
2022-08-07T13:16:58.017Z,28.72
2022-08-07T13:56:17.314Z,24.73
2022-08-07T14:10:28.332Z,24.75
2022-08-07T14:49:56.819Z,24.34
2022-08-07T15:00:05.215Z,22.58
2022-08-07T15:21:44.948Z,25.02
2022-08-07T15:36:01.865Z,25.46
2022-08-07T15:47:21.178Z,28.94
2022-08-07T15:57:48.123Z,31.02
2022-08-07T16:08:31.704Z,32.63
2022-08-07T16:18:01.891Z,33.55
2022-08-07T16:28:14.574Z,35.95
2022-08-07T16:38:44.095Z,37.15
2022-08-07T16:48:53.561Z,36.70
2022-08-07T16:59:10.150Z,37.80
2022-08-07T17:09:10.747Z,38.62
2022-08-07T17:19:16.434Z,38.84
2022-08-07T17:30:15.064Z,39.13
2022-08-07T17:39:58.514Z,40.23
2022-08-07T17:57:59.164Z,42.83
2022-08-07T18:07:58.014Z,43.07
2022-08-07T18:18:44.715Z,45.75
2022-08-07T18:28:33.105Z,46.92
2022-08-07T18:38:56.013Z,47.39
2022-08-07T18:50:31.859Z,50.88
2022-08-07T18:58:52.106Z,55.62
2022-08-07T19:08:58.876Z,60.67
2022-08-07T19:19:05.445Z,67.20
2022-08-07T19:31:05.120Z,70.17
2022-08-07T19:39:40.437Z,71.05
2022-08-07T19:49:56.439Z,73.81
2022-08-07T19:59:54.510Z,73.71
2022-08-07T20:10:35.060Z,76.59
2022-08-07T20:20:12.985Z,76.52
2022-08-07T20:30:22.372Z,78.78
2022-08-07T20:44:28.192Z,79.20
2022-08-07T20:54:33.378Z,82.13
2022-08-07T21:04:40.802Z,82.10
2022-08-07T21:36:05.652Z,84.22
2022-08-07T22:19:10.981Z,86.71
2022-08-07T22:32:06.390Z,89.97
2022-08-07T22:51:36.492Z,90.54
2022-08-07T23:06:08.220Z,91.69
2022-08-07T23:18:42.178Z,93.17
2022-08-07T23:28:53.427Z,94.27
2022-08-07T23:39:00.925Z,95.08
2022-08-07T23:50:34.844Z,94.99
